sensor_id;sensor_type;location;lat;lon;timestamp;temperature;humidity
65048;DHT22;52089;51.362;-2.384;2022-12-18T00:00:57;-0.30;99.90
65048;DHT22;52089;51.362;-2.384;2022-12-18T00:04:39;-0.30;99.90
65048;DHT22;52089;51.362;-2.384;2022-12-18T00:08:20;-0.30;99.90
65048;DHT22;52089;51.362;-2.384;2022-12-18T00:12:02;-0.40;99.90
65048;DHT22;52089;51.362;-2.384;2022-12-18T00:16:05;-0.40;99.90
65048;DHT22;52089;51.362;-2.384;2022-12-18T00:19:47;-0.30;99.90
65048;DHT22;52089;51.362;-2.384;2022-12-18T00:23:30;-0.30;99.90
65048;DHT22;52089;51.362;-2.384;2022-12-18T00:27:12;-0.20;99.90
65048;DHT22;52089;51.362;-2.384;2022-12-18T00:31:20;-0.20;99.90
65048;DHT22;52089;51.362;-2.384;2022-12-18T00:35:03;-0.20;99.90
65048;DHT22;52089;51.362;-2.384;2022-12-18T00:38:46;-0.10;99.90
65048;DHT22;52089;51.362;-2.384;2022-12-18T00:42:28;0.00;99.90
65048;DHT22;52089;51.362;-2.384;2022-12-18T00:46:29;0.00;99.90
65048;DHT22;52089;51.362;-2.384;2022-12-18T00:50:11;0.00;99.90
65048;DHT22;52089;51.362;-2.384;2022-12-18T00:53:53;0.10;99.90
65048;DHT22;52089;51.362;-2.384;2022-12-18T00:57:35;0.10;99.90
65048;DHT22;52089;51.362;-2.384;2022-12-18T01:01:17;0.10;99.90
65048;DHT22;52089;51.362;-2.384;2022-12-18T01:04:59;0.10;99.90
65048;DHT22;52089;51.362;-2.384;2022-12-18T01:08:41;0.10;99.90
65048;DHT22;52089;51.362;-2.384;2022-12-18T01:12:23;0.00;99.90
65048;DHT22;52089;51.362;-2.384;2022-12-18T01:16:05;0.00;99.90
65048;DHT22;52089;51.362;-2.384;2022-12-18T01:19:48;0.00;99.90
65048;DHT22;52089;51.362;-2.384;2022-12-18T01:23:29;-0.10;99.90
65048;DHT22;52089;51.362;-2.384;2022-12-18T01:27:11;0.00;99.90
65048;DHT22;52089;51.362;-2.384;2022-12-18T01:30:53;-0.10;99.90
65048;DHT22;52089;51.362;-2.384;2022-12-18T01:34:36;-0.10;99.90
65048;DHT22;52089;51.362;-2.384;2022-12-18T01:38:18;-0.10;99.90
65048;DHT22;52089;51.362;-2.384;2022-12-18T01:42:02;0.00;99.90
65048;DHT22;52089;51.362;-2.384;2022-12-18T01:45:44;0.00;99.90
65048;DHT22;52089;51.362;-2.384;2022-12-18T01:49:26;0.10;99.90
65048;DHT22;52089;51.362;-2.384;2022-12-18T01:53:14;0.10;99.90
65048;DHT22;52089;51.362;-2.384;2022-12-18T01:56:56;0.10;99.90
65048;DHT22;52089;51.362;-2.384;2022-12-18T02:00:38;0.10;99.90
65048;DHT22;52089;51.362;-2.384;2022-12-18T02:04:25;0.10;99.90
65048;DHT22;52089;51.362;-2.384;2022-12-18T02:08:22;0.10;99.90
65048;DHT22;52089;51.362;-2.384;2022-12-18T02:12:18;0.20;99.90
65048;DHT22;52089;51.362;-2.384;2022-12-18T02:27:53;0.30;99.90
65048;DHT22;52089;51.362;-2.384;2022-12-18T02:31:41;0.30;99.90
65048;DHT22;52089;51.362;-2.384;2022-12-18T02:35:27;0.40;99.90
65048;DHT22;52089;51.362;-2.384;2022-12-18T02:39:11;0.50;99.90
65048;DHT22;52089;51.362;-2.384;2022-12-18T02:42:54;0.60;99.90
65048;DHT22;52089;51.362;-2.384;2022-12-18T02:46:39;0.70;99.90
65048;DHT22;52089;51.362;-2.384;2022-12-18T02:50:34;0.80;99.90
65048;DHT22;52089;51.362;-2.384;2022-12-18T02:54:35;0.80;99.90
65048;DHT22;52089;51.362;-2.384;2022-12-18T02:58:32;0.80;99.90
65048;DHT22;52089;51.362;-2.384;2022-12-18T03:02:20;0.90;99.90
65048;DHT22;52089;51.362;-2.384;2022-12-18T03:06:33;0.90;99.90
65048;DHT22;52089;51.362;-2.384;2022-12-18T03:10:21;0.90;99.90
65048;DHT22;52089;51.362;-2.384;2022-12-18T03:14:08;1.00;99.90
65048;DHT22;52089;51.362;-2.384;2022-12-18T03:18:01;0.90;99.90
65048;DHT22;52089;51.362;-2.384;2022-12-18T03:21:51;0.90;99.90
65048;DHT22;52089;51.362;-2.384;2022-12-18T03:25:33;1.00;99.90
65048;DHT22;52089;51.362;-2.384;2022-12-18T03:29:24;1.00;99.90
65048;DHT22;52089;51.362;-2.384;2022-12-18T03:33:12;1.10;99.90
65048;DHT22;52089;51.362;-2.384;2022-12-18T03:36:55;1.20;99.90
65048;DHT22;52089;51.362;-2.384;2022-12-18T03:41:00;1.20;99.90
65048;DHT22;52089;51.362;-2.384;2022-12-18T03:48:43;1.30;99.90
65048;DHT22;52089;51.362;-2.384;2022-12-18T03:52:34;1.30;99.90
65048;DHT22;52089;51.362;-2.384;2022-12-18T03:56:18;1.30;99.90
65048;DHT22;52089;51.362;-2.384;2022-12-18T04:00:17;1.40;99.90
65048;DHT22;52089;51.362;-2.384;2022-12-18T04:04:00;1.50;99.90
65048;DHT22;52089;51.362;-2.384;2022-12-18T04:07:45;1.50;99.90
65048;DHT22;52089;51.362;-2.384;2022-12-18T04:11:28;1.50;99.90
65048;DHT22;52089;51.362;-2.384;2022-12-18T04:15:11;1.50;99.90
65048;DHT22;52089;51.362;-2.384;2022-12-18T04:18:53;1.60;99.90
65048;DHT22;52089;51.362;-2.384;2022-12-18T04:22:35;1.60;99.90
65048;DHT22;52089;51.362;-2.384;2022-12-18T04:26:17;1.60;99.90
65048;DHT22;52089;51.362;-2.384;2022-12-18T04:29:59;1.60;99.90
65048;DHT22;52089;51.362;-2.384;2022-12-18T04:33:41;1.70;99.90
65048;DHT22;52089;51.362;-2.384;2022-12-18T04:37:23;1.70;99.90
65048;DHT22;52089;51.362;-2.384;2022-12-18T04:41:05;1.70;99.90
65048;DHT22;52089;51.362;-2.384;2022-12-18T04:44:48;1.70;99.90
65048;DHT22;52089;51.362;-2.384;2022-12-18T04:48:29;1.80;99.90
65048;DHT22;52089;51.362;-2.384;2022-12-18T04:52:14;1.80;99.90
65048;DHT22;52089;51.362;-2.384;2022-12-18T04:56:07;1.80;99.90
65048;DHT22;52089;51.362;-2.384;2022-12-18T04:59:50;1.90;99.90
65048;DHT22;52089;51.362;-2.384;2022-12-18T05:03:31;1.90;99.90
65048;DHT22;52089;51.362;-2.384;2022-12-18T05:07:13;1.90;99.90
65048;DHT22;52089;51.362;-2.384;2022-12-18T05:11:00;1.90;99.90
65048;DHT22;52089;51.362;-2.384;2022-12-18T05:14:42;2.00;99.90
65048;DHT22;52089;51.362;-2.384;2022-12-18T05:18:24;2.00;99.90
65048;DHT22;52089;51.362;-2.384;2022-12-18T05:22:06;2.00;99.90
65048;DHT22;52089;51.362;-2.384;2022-12-18T05:25:54;2.00;99.90
65048;DHT22;52089;51.362;-2.384;2022-12-18T05:29:36;2.00;99.90
65048;DHT22;52089;51.362;-2.384;2022-12-18T05:33:22;2.00;99.90
65048;DHT22;52089;51.362;-2.384;2022-12-18T05:41:04;2.00;99.90
65048;DHT22;52089;51.362;-2.384;2022-12-18T05:44:46;2.00;99.90
65048;DHT22;52089;51.362;-2.384;2022-12-18T05:48:28;2.00;99.90
65048;DHT22;52089;51.362;-2.384;2022-12-18T05:52:09;2.00;99.90
65048;DHT22;52089;51.362;-2.384;2022-12-18T05:55:51;2.10;99.90
65048;DHT22;52089;51.362;-2.384;2022-12-18T05:59:33;2.10;99.90
65048;DHT22;52089;51.362;-2.384;2022-12-18T06:03:15;2.10;99.90
65048;DHT22;52089;51.362;-2.384;2022-12-18T06:06:57;2.20;99.90
65048;DHT22;52089;51.362;-2.384;2022-12-18T06:10:40;2.20;99.90
65048;DHT22;52089;51.362;-2.384;2022-12-18T06:14:22;2.30;99.90
65048;DHT22;52089;51.362;-2.384;2022-12-18T06:18:04;2.40;99.90
65048;DHT22;52089;51.362;-2.384;2022-12-18T06:21:46;2.40;99.90
65048;DHT22;52089;51.362;-2.384;2022-12-18T06:25:27;2.50;99.90
65048;DHT22;52089;51.362;-2.384;2022-12-18T06:29:09;2.50;99.90
65048;DHT22;52089;51.362;-2.384;2022-12-18T06:32:51;2.50;99.90
65048;DHT22;52089;51.362;-2.384;2022-12-18T06:36:37;2.60;99.90
65048;DHT22;52089;51.362;-2.384;2022-12-18T06:40:19;2.70;99.90
65048;DHT22;52089;51.362;-2.384;2022-12-18T06:44:01;2.70;99.90
65048;DHT22;52089;51.362;-2.384;2022-12-18T06:47:43;2.80;99.90
65048;DHT22;52089;51.362;-2.384;2022-12-18T06:51:25;2.80;99.90
65048;DHT22;52089;51.362;-2.384;2022-12-18T06:55:07;2.90;99.90
65048;DHT22;52089;51.362;-2.384;2022-12-18T06:58:49;2.90;99.90
65048;DHT22;52089;51.362;-2.384;2022-12-18T07:02:31;2.90;99.90
65048;DHT22;52089;51.362;-2.384;2022-12-18T07:06:18;3.00;99.90
65048;DHT22;52089;51.362;-2.384;2022-12-18T07:10:00;3.00;99.90
65048;DHT22;52089;51.362;-2.384;2022-12-18T07:13:43;3.00;99.90
65048;DHT22;52089;51.362;-2.384;2022-12-18T07:17:24;3.00;99.90
65048;DHT22;52089;51.362;-2.384;2022-12-18T07:21:09;3.00;99.90
65048;DHT22;52089;51.362;-2.384;2022-12-18T07:24:51;3.10;99.90
65048;DHT22;52089;51.362;-2.384;2022-12-18T07:28:34;3.10;99.90
65048;DHT22;52089;51.362;-2.384;2022-12-18T07:32:16;3.10;99.90
65048;DHT22;52089;51.362;-2.384;2022-12-18T07:35:59;3.10;99.90
65048;DHT22;52089;51.362;-2.384;2022-12-18T07:39:43;3.20;99.90
65048;DHT22;52089;51.362;-2.384;2022-12-18T07:43:26;3.20;99.90
65048;DHT22;52089;51.362;-2.384;2022-12-18T07:47:07;3.20;99.90
65048;DHT22;52089;51.362;-2.384;2022-12-18T07:50:52;3.20;99.90
65048;DHT22;52089;51.362;-2.384;2022-12-18T07:54:34;3.20;99.90
65048;DHT22;52089;51.362;-2.384;2022-12-18T07:58:16;3.20;99.90
65048;DHT22;52089;51.362;-2.384;2022-12-18T08:01:58;3.30;99.90
65048;DHT22;52089;51.362;-2.384;2022-12-18T08:05:40;3.20;99.90
65048;DHT22;52089;51.362;-2.384;2022-12-18T08:09:22;3.20;99.90
65048;DHT22;52089;51.362;-2.384;2022-12-18T08:13:03;3.20;99.90
65048;DHT22;52089;51.362;-2.384;2022-12-18T08:16:45;3.20;99.90
65048;DHT22;52089;51.362;-2.384;2022-12-18T08:20:27;3.20;99.90
65048;DHT22;52089;51.362;-2.384;2022-12-18T08:24:09;3.20;99.90
65048;DHT22;52089;51.362;-2.384;2022-12-18T08:27:52;3.20;99.90
65048;DHT22;52089;51.362;-2.384;2022-12-18T08:31:34;3.20;99.90
65048;DHT22;52089;51.362;-2.384;2022-12-18T08:35:16;3.00;99.90
65048;DHT22;52089;51.362;-2.384;2022-12-18T08:38:59;2.90;99.90
65048;DHT22;52089;51.362;-2.384;2022-12-18T08:42:41;2.70;99.90
65048;DHT22;52089;51.362;-2.384;2022-12-18T08:46:42;2.60;99.90
65048;DHT22;52089;51.362;-2.384;2022-12-18T08:50:24;2.40;99.90
65048;DHT22;52089;51.362;-2.384;2022-12-18T08:54:06;2.20;99.90
65048;DHT22;52089;51.362;-2.384;2022-12-18T08:57:49;2.10;99.90
65048;DHT22;52089;51.362;-2.384;2022-12-18T09:01:31;2.10;99.90
65048;DHT22;52089;51.362;-2.384;2022-12-18T09:05:14;2.10;99.90
65048;DHT22;52089;51.362;-2.384;2022-12-18T09:08:57;2.20;99.90
65048;DHT22;52089;51.362;-2.384;2022-12-18T09:12:39;2.20;99.90
65048;DHT22;52089;51.362;-2.384;2022-12-18T09:16:21;2.20;99.90
65048;DHT22;52089;51.362;-2.384;2022-12-18T09:20:12;2.30;99.90
65048;DHT22;52089;51.362;-2.384;2022-12-18T09:23:55;2.30;99.90
65048;DHT22;52089;51.362;-2.384;2022-12-18T09:27:37;2.30;99.90
65048;DHT22;52089;51.362;-2.384;2022-12-18T09:31:22;2.40;99.90
65048;DHT22;52089;51.362;-2.384;2022-12-18T09:35:04;2.40;99.90
65048;DHT22;52089;51.362;-2.384;2022-12-18T09:38:46;2.50;99.90
65048;DHT22;52089;51.362;-2.384;2022-12-18T09:42:28;2.60;99.90
65048;DHT22;52089;51.362;-2.384;2022-12-18T09:46:19;2.60;99.90
65048;DHT22;52089;51.362;-2.384;2022-12-18T09:50:05;2.60;99.90
65048;DHT22;52089;51.362;-2.384;2022-12-18T09:54:01;2.70;99.90
65048;DHT22;52089;51.362;-2.384;2022-12-18T09:57:52;2.70;99.90
65048;DHT22;52089;51.362;-2.384;2022-12-18T10:01:34;2.80;99.90
65048;DHT22;52089;51.362;-2.384;2022-12-18T10:10:04;2.90;99.90
65048;DHT22;52089;51.362;-2.384;2022-12-18T10:18:07;3.00;99.90
65048;DHT22;52089;51.362;-2.384;2022-12-18T10:26:08;3.00;99.90
65048;DHT22;52089;51.362;-2.384;2022-12-18T10:29:50;3.00;99.90
65048;DHT22;52089;51.362;-2.384;2022-12-18T10:33:33;3.00;99.90
65048;DHT22;52089;51.362;-2.384;2022-12-18T10:37:22;3.00;99.90
65048;DHT22;52089;51.362;-2.384;2022-12-18T10:45:16;3.10;99.90
65048;DHT22;52089;51.362;-2.384;2022-12-18T10:48:59;3.10;99.90
65048;DHT22;52089;51.362;-2.384;2022-12-18T10:52:41;3.10;99.90
65048;DHT22;52089;51.362;-2.384;2022-12-18T10:56:30;3.20;99.90
65048;DHT22;52089;51.362;-2.384;2022-12-18T11:00:22;3.20;99.90
65048;DHT22;52089;51.362;-2.384;2022-12-18T11:04:08;3.30;99.90
65048;DHT22;52089;51.362;-2.384;2022-12-18T11:07:50;3.30;99.90
65048;DHT22;52089;51.362;-2.384;2022-12-18T11:11:33;3.30;99.90
65048;DHT22;52089;51.362;-2.384;2022-12-18T11:15:26;3.40;99.90
65048;DHT22;52089;51.362;-2.384;2022-12-18T11:19:45;3.40;99.90
65048;DHT22;52089;51.362;-2.384;2022-12-18T11:23:21;3.50;99.90
65048;DHT22;52089;51.362;-2.384;2022-12-18T11:27:16;3.50;99.90
65048;DHT22;52089;51.362;-2.384;2022-12-18T11:31:19;3.50;99.90
65048;DHT22;52089;51.362;-2.384;2022-12-18T11:35:17;3.60;99.90
65048;DHT22;52089;51.362;-2.384;2022-12-18T11:39:11;3.60;99.90
65048;DHT22;52089;51.362;-2.384;2022-12-18T11:43:28;3.60;99.90
65048;DHT22;52089;51.362;-2.384;2022-12-18T11:47:18;3.70;99.90
65048;DHT22;52089;51.362;-2.384;2022-12-18T11:51:05;3.70;99.90
65048;DHT22;52089;51.362;-2.384;2022-12-18T11:54:52;3.70;99.90
65048;DHT22;52089;51.362;-2.384;2022-12-18T11:58:42;3.80;99.90
65048;DHT22;52089;51.362;-2.384;2022-12-18T12:06:39;3.80;99.90
65048;DHT22;52089;51.362;-2.384;2022-12-18T12:10:36;3.80;99.90
65048;DHT22;52089;51.362;-2.384;2022-12-18T12:15:25;3.90;99.90
65048;DHT22;52089;51.362;-2.384;2022-12-18T12:23:01;4.00;99.90
65048;DHT22;52089;51.362;-2.384;2022-12-18T12:27:37;4.00;99.90
65048;DHT22;52089;51.362;-2.384;2022-12-18T12:31:16;4.10;99.90
65048;DHT22;52089;51.362;-2.384;2022-12-18T12:39:05;4.20;99.90
65048;DHT22;52089;51.362;-2.384;2022-12-18T12:42:56;4.20;99.90
65048;DHT22;52089;51.362;-2.384;2022-12-18T12:46:58;4.30;99.90
65048;DHT22;52089;51.362;-2.384;2022-12-18T12:50:42;4.40;99.90
65048;DHT22;52089;51.362;-2.384;2022-12-18T12:54:26;4.40;99.90
65048;DHT22;52089;51.362;-2.384;2022-12-18T12:58:26;4.40;99.90
65048;DHT22;52089;51.362;-2.384;2022-12-18T13:07:12;4.50;99.90
65048;DHT22;52089;51.362;-2.384;2022-12-18T13:10:58;4.60;99.90
65048;DHT22;52089;51.362;-2.384;2022-12-18T13:15:43;4.60;99.90
65048;DHT22;52089;51.362;-2.384;2022-12-18T13:19:27;4.70;99.90
65048;DHT22;52089;51.362;-2.384;2022-12-18T13:23:34;4.80;99.90
65048;DHT22;52089;51.362;-2.384;2022-12-18T13:43:21;5.20;99.90
65048;DHT22;52089;51.362;-2.384;2022-12-18T13:47:05;5.30;99.90
65048;DHT22;52089;51.362;-2.384;2022-12-18T13:51:06;5.40;99.90
65048;DHT22;52089;51.362;-2.384;2022-12-18T13:54:53;5.50;99.90
65048;DHT22;52089;51.362;-2.384;2022-12-18T13:58:36;5.60;99.90
65048;DHT22;52089;51.362;-2.384;2022-12-18T14:02:24;5.60;99.90
65048;DHT22;52089;51.362;-2.384;2022-12-18T14:06:08;5.70;99.90
65048;DHT22;52089;51.362;-2.384;2022-12-18T14:09:57;5.80;99.90
65048;DHT22;52089;51.362;-2.384;2022-12-18T14:13:53;5.90;99.90
65048;DHT22;52089;51.362;-2.384;2022-12-18T14:17:36;6.00;99.90
65048;DHT22;52089;51.362;-2.384;2022-12-18T14:25:26;6.30;99.90
65048;DHT22;52089;51.362;-2.384;2022-12-18T14:29:24;6.60;99.90
65048;DHT22;52089;51.362;-2.384;2022-12-18T14:33:09;6.80;99.90
65048;DHT22;52089;51.362;-2.384;2022-12-18T14:36:54;7.00;99.90
65048;DHT22;52089;51.362;-2.384;2022-12-18T14:40:37;7.10;99.90
65048;DHT22;52089;51.362;-2.384;2022-12-18T14:44:19;7.30;99.90
65048;DHT22;52089;51.362;-2.384;2022-12-18T14:48:06;7.40;99.90
65048;DHT22;52089;51.362;-2.384;2022-12-18T14:51:53;7.50;99.90
65048;DHT22;52089;51.362;-2.384;2022-12-18T14:55:37;7.60;99.90
65048;DHT22;52089;51.362;-2.384;2022-12-18T14:59:24;7.60;99.90
65048;DHT22;52089;51.362;-2.384;2022-12-18T15:03:07;7.70;99.90
65048;DHT22;52089;51.362;-2.384;2022-12-18T15:07:21;7.70;99.90
65048;DHT22;52089;51.362;-2.384;2022-12-18T15:11:27;7.80;99.90
65048;DHT22;52089;51.362;-2.384;2022-12-18T15:19:24;7.80;99.90
65048;DHT22;52089;51.362;-2.384;2022-12-18T15:23:34;7.90;99.90
65048;DHT22;52089;51.362;-2.384;2022-12-18T15:31:42;8.00;99.90
65048;DHT22;52089;51.362;-2.384;2022-12-18T15:35:24;8.00;99.90
65048;DHT22;52089;51.362;-2.384;2022-12-18T15:39:06;8.00;99.90
65048;DHT22;52089;51.362;-2.384;2022-12-18T15:42:49;8.00;99.90
65048;DHT22;52089;51.362;-2.384;2022-12-18T15:46:51;8.10;99.90
65048;DHT22;52089;51.362;-2.384;2022-12-18T15:50:33;8.10;99.90
65048;DHT22;52089;51.362;-2.384;2022-12-18T15:54:15;8.10;99.90
65048;DHT22;52089;51.362;-2.384;2022-12-18T15:58:19;8.20;99.90
65048;DHT22;52089;51.362;-2.384;2022-12-18T16:02:15;8.10;99.90
65048;DHT22;52089;51.362;-2.384;2022-12-18T16:05:58;8.20;99.90
65048;DHT22;52089;51.362;-2.384;2022-12-18T16:09:42;8.20;99.90
65048;DHT22;52089;51.362;-2.384;2022-12-18T16:13:24;8.20;99.90
65048;DHT22;52089;51.362;-2.384;2022-12-18T16:17:09;8.30;99.90
65048;DHT22;52089;51.362;-2.384;2022-12-18T16:20:52;8.30;99.90
65048;DHT22;52089;51.362;-2.384;2022-12-18T16:24:34;8.30;99.90
65048;DHT22;52089;51.362;-2.384;2022-12-18T16:28:17;8.30;99.90
65048;DHT22;52089;51.362;-2.384;2022-12-18T16:32:00;8.40;99.90
65048;DHT22;52089;51.362;-2.384;2022-12-18T16:35:42;8.40;99.90
65048;DHT22;52089;51.362;-2.384;2022-12-18T16:39:24;8.40;99.90
65048;DHT22;52089;51.362;-2.384;2022-12-18T16:43:07;8.40;99.90
65048;DHT22;52089;51.362;-2.384;2022-12-18T16:46:48;8.50;99.90
65048;DHT22;52089;51.362;-2.384;2022-12-18T16:50:30;8.50;99.90
65048;DHT22;52089;51.362;-2.384;2022-12-18T16:57:52;8.50;99.90
65048;DHT22;52089;51.362;-2.384;2022-12-18T17:01:34;8.50;99.90
65048;DHT22;52089;51.362;-2.384;2022-12-18T17:05:16;8.60;99.90
65048;DHT22;52089;51.362;-2.384;2022-12-18T17:08:59;8.60;99.90
65048;DHT22;52089;51.362;-2.384;2022-12-18T17:12:41;8.60;99.90
65048;DHT22;52089;51.362;-2.384;2022-12-18T17:16:24;8.60;99.90
65048;DHT22;52089;51.362;-2.384;2022-12-18T17:20:07;8.60;99.90
65048;DHT22;52089;51.362;-2.384;2022-12-18T17:23:49;8.70;99.90
65048;DHT22;52089;51.362;-2.384;2022-12-18T17:27:31;8.70;99.90
65048;DHT22;52089;51.362;-2.384;2022-12-18T17:31:18;8.70;99.90
65048;DHT22;52089;51.362;-2.384;2022-12-18T17:35:00;8.80;99.90
65048;DHT22;52089;51.362;-2.384;2022-12-18T17:38:52;8.70;99.90
65048;DHT22;52089;51.362;-2.384;2022-12-18T17:42:34;8.80;99.90
65048;DHT22;52089;51.362;-2.384;2022-12-18T17:46:16;8.80;99.90
65048;DHT22;52089;51.362;-2.384;2022-12-18T17:49:58;8.90;99.90
65048;DHT22;52089;51.362;-2.384;2022-12-18T17:53:40;8.90;99.90
65048;DHT22;52089;51.362;-2.384;2022-12-18T17:57:22;9.00;99.90
65048;DHT22;52089;51.362;-2.384;2022-12-18T18:01:05;9.00;99.90
65048;DHT22;52089;51.362;-2.384;2022-12-18T18:04:47;9.00;99.90
65048;DHT22;52089;51.362;-2.384;2022-12-18T18:08:29;9.10;99.90
65048;DHT22;52089;51.362;-2.384;2022-12-18T18:12:12;9.00;99.90
65048;DHT22;52089;51.362;-2.384;2022-12-18T18:16:13;9.10;99.90
65048;DHT22;52089;51.362;-2.384;2022-12-18T18:19:55;9.10;99.90
65048;DHT22;52089;51.362;-2.384;2022-12-18T18:23:37;9.10;99.90
65048;DHT22;52089;51.362;-2.384;2022-12-18T18:27:21;9.10;99.90
65048;DHT22;52089;51.362;-2.384;2022-12-18T18:31:07;9.10;99.90
65048;DHT22;52089;51.362;-2.384;2022-12-18T18:34:49;9.20;99.90
65048;DHT22;52089;51.362;-2.384;2022-12-18T18:38:31;9.20;99.90
65048;DHT22;52089;51.362;-2.384;2022-12-18T18:42:13;9.30;99.90
65048;DHT22;52089;51.362;-2.384;2022-12-18T18:45:56;9.40;99.90
65048;DHT22;52089;51.362;-2.384;2022-12-18T18:49:39;9.40;99.90
65048;DHT22;52089;51.362;-2.384;2022-12-18T18:53:21;9.50;99.90
65048;DHT22;52089;51.362;-2.384;2022-12-18T18:57:03;9.50;99.90
65048;DHT22;52089;51.362;-2.384;2022-12-18T19:01:04;9.60;99.90
65048;DHT22;52089;51.362;-2.384;2022-12-18T19:04:46;9.70;99.90
65048;DHT22;52089;51.362;-2.384;2022-12-18T19:08:32;9.80;99.90
65048;DHT22;52089;51.362;-2.384;2022-12-18T19:12:14;9.80;99.90
65048;DHT22;52089;51.362;-2.384;2022-12-18T19:16:17;9.90;99.90
65048;DHT22;52089;51.362;-2.384;2022-12-18T19:20:05;10.00;99.90
65048;DHT22;52089;51.362;-2.384;2022-12-18T19:23:49;10.10;99.90
65048;DHT22;52089;51.362;-2.384;2022-12-18T19:27:31;10.10;99.90
65048;DHT22;52089;51.362;-2.384;2022-12-18T19:31:15;10.30;99.90
65048;DHT22;52089;51.362;-2.384;2022-12-18T19:35:05;10.30;99.90
65048;DHT22;52089;51.362;-2.384;2022-12-18T19:38:48;10.40;99.90
65048;DHT22;52089;51.362;-2.384;2022-12-18T19:42:30;10.40;99.90
65048;DHT22;52089;51.362;-2.384;2022-12-18T19:46:18;10.50;99.90
65048;DHT22;52089;51.362;-2.384;2022-12-18T19:50:03;10.60;99.90
65048;DHT22;52089;51.362;-2.384;2022-12-18T19:53:45;10.60;99.90
65048;DHT22;52089;51.362;-2.384;2022-12-18T19:57:28;10.70;99.90
65048;DHT22;52089;51.362;-2.384;2022-12-18T20:01:14;10.80;99.90
65048;DHT22;52089;51.362;-2.384;2022-12-18T20:04:57;10.80;99.90
65048;DHT22;52089;51.362;-2.384;2022-12-18T20:08:40;10.90;99.90
65048;DHT22;52089;51.362;-2.384;2022-12-18T20:12:22;10.90;99.90
65048;DHT22;52089;51.362;-2.384;2022-12-18T20:16:04;10.90;99.90
65048;DHT22;52089;51.362;-2.384;2022-12-18T20:19:45;11.00;99.90
65048;DHT22;52089;51.362;-2.384;2022-12-18T20:23:28;11.00;99.90
65048;DHT22;52089;51.362;-2.384;2022-12-18T20:27:12;11.00;99.90
65048;DHT22;52089;51.362;-2.384;2022-12-18T20:31:00;11.00;99.90
65048;DHT22;52089;51.362;-2.384;2022-12-18T20:34:42;11.00;99.90
65048;DHT22;52089;51.362;-2.384;2022-12-18T20:38:24;10.90;99.90
65048;DHT22;52089;51.362;-2.384;2022-12-18T20:42:07;10.90;99.90
65048;DHT22;52089;51.362;-2.384;2022-12-18T20:45:49;10.90;99.90
65048;DHT22;52089;51.362;-2.384;2022-12-18T20:49:31;11.00;99.90
65048;DHT22;52089;51.362;-2.384;2022-12-18T20:53:12;11.00;99.90
65048;DHT22;52089;51.362;-2.384;2022-12-18T20:56:56;11.00;99.90
65048;DHT22;52089;51.362;-2.384;2022-12-18T21:00:38;11.00;99.90
65048;DHT22;52089;51.362;-2.384;2022-12-18T21:04:20;11.10;99.90
65048;DHT22;52089;51.362;-2.384;2022-12-18T21:08:02;11.10;99.90
65048;DHT22;52089;51.362;-2.384;2022-12-18T21:11:44;11.20;99.90
65048;DHT22;52089;51.362;-2.384;2022-12-18T21:15:44;11.20;99.90
65048;DHT22;52089;51.362;-2.384;2022-12-18T21:19:27;11.30;99.90
65048;DHT22;52089;51.362;-2.384;2022-12-18T21:23:09;11.40;99.90
65048;DHT22;52089;51.362;-2.384;2022-12-18T21:26:57;11.40;99.90
65048;DHT22;52089;51.362;-2.384;2022-12-18T21:30:39;11.50;99.90
65048;DHT22;52089;51.362;-2.384;2022-12-18T21:34:26;11.50;99.90
65048;DHT22;52089;51.362;-2.384;2022-12-18T21:38:08;11.50;99.90
65048;DHT22;52089;51.362;-2.384;2022-12-18T21:41:51;11.60;99.90
65048;DHT22;52089;51.362;-2.384;2022-12-18T21:45:56;11.70;99.90
65048;DHT22;52089;51.362;-2.384;2022-12-18T21:49:40;11.70;99.90
65048;DHT22;52089;51.362;-2.384;2022-12-18T21:53:24;11.70;99.90
65048;DHT22;52089;51.362;-2.384;2022-12-18T21:57:06;11.80;99.90
65048;DHT22;52089;51.362;-2.384;2022-12-18T22:00:49;11.80;99.90
65048;DHT22;52089;51.362;-2.384;2022-12-18T22:04:30;11.80;99.90
65048;DHT22;52089;51.362;-2.384;2022-12-18T22:08:13;11.80;99.90
65048;DHT22;52089;51.362;-2.384;2022-12-18T22:11:55;11.90;99.90
65048;DHT22;52089;51.362;-2.384;2022-12-18T22:15:37;11.80;99.90
65048;DHT22;52089;51.362;-2.384;2022-12-18T22:19:19;11.90;99.90
65048;DHT22;52089;51.362;-2.384;2022-12-18T22:23:00;11.90;99.90
65048;DHT22;52089;51.362;-2.384;2022-12-18T22:26:47;11.90;99.90
65048;DHT22;52089;51.362;-2.384;2022-12-18T22:30:29;11.90;99.90
65048;DHT22;52089;51.362;-2.384;2022-12-18T22:34:11;11.90;99.90
65048;DHT22;52089;51.362;-2.384;2022-12-18T22:37:53;11.90;99.90
65048;DHT22;52089;51.362;-2.384;2022-12-18T22:41:37;11.90;99.90
65048;DHT22;52089;51.362;-2.384;2022-12-18T22:45:20;11.90;99.90
65048;DHT22;52089;51.362;-2.384;2022-12-18T22:49:03;11.90;99.90
65048;DHT22;52089;51.362;-2.384;2022-12-18T22:52:45;11.90;99.90
65048;DHT22;52089;51.362;-2.384;2022-12-18T22:56:27;11.90;99.90
65048;DHT22;52089;51.362;-2.384;2022-12-18T23:00:09;12.00;99.90
65048;DHT22;52089;51.362;-2.384;2022-12-18T23:03:52;11.90;99.90
65048;DHT22;52089;51.362;-2.384;2022-12-18T23:07:36;12.00;99.90
65048;DHT22;52089;51.362;-2.384;2022-12-18T23:11:19;12.00;99.90
65048;DHT22;52089;51.362;-2.384;2022-12-18T23:15:01;12.00;99.90
65048;DHT22;52089;51.362;-2.384;2022-12-18T23:18:49;11.90;99.90
65048;DHT22;52089;51.362;-2.384;2022-12-18T23:22:37;11.90;99.90
65048;DHT22;52089;51.362;-2.384;2022-12-18T23:26:21;11.90;99.90
65048;DHT22;52089;51.362;-2.384;2022-12-18T23:30:04;11.90;99.90
65048;DHT22;52089;51.362;-2.384;2022-12-18T23:33:47;11.90;99.90
65048;DHT22;52089;51.362;-2.384;2022-12-18T23:37:30;11.90;99.90
65048;DHT22;52089;51.362;-2.384;2022-12-18T23:41:32;11.90;99.90
65048;DHT22;52089;51.362;-2.384;2022-12-18T23:45:22;12.00;99.90
65048;DHT22;52089;51.362;-2.384;2022-12-18T23:49:09;12.00;99.90
65048;DHT22;52089;51.362;-2.384;2022-12-18T23:52:52;12.00;99.90
65048;DHT22;52089;51.362;-2.384;2022-12-18T23:56:34;12.00;99.90
